Norfolk, Virginia
Traffic Map
Current Weather Conditions
Norfolk, Virginia
Clear
Clear
11°
Feels Like: 11°
Wind Chill: 11° Ceiling: Unl
Heat Index: 11° Visibility: 10mi
Dew Point: Wind: 25mph
Humidity: 66% Direction: 30° (NNE)
Pressure: 30.22in Gusts: 31mph
Raw Report DataKORF 201051Z AUTO 03022G27KT 10SM CLR 11/04 A3022 RMK AO2 PK WND 03030/1004 SLP233 T01060044 TSNO
Traffic Incident Summary
Active as of:
Severity:
Category:
InformationThere was an issue retrieving the traffic information for this location. Please try a different location or try again shortly.
Advertisements
At Last! Intellicast now available for iPhone and Android